Time;durP1;ratioP1;P1;durP2;ratioP2;P2;SDS_P1;SDS_P2;PMS_P1;PMS_P2;Temp;Humidity;BMP_temperature;BMP_pressure;BME280_temperature;BME280_humidity;BME280_pressure;Samples;Min_cycle;Max_cycle;Signal;HPM_P1;HPM_P2
2021/04/29 00:01:05;;;;;;;5.20;4.70;;;14.10;90.70;;;;;;5053469;28;20420;-69
2021/04/29 00:03:34;;;;;;;5.13;4.70;;;14.10;91.20;;;;;;5053344;28;20186;-69
2021/04/29 00:06:00;;;;;;;5.73;5.20;;;14.00;91.50;;;;;;5053468;28;20173;-70
2021/04/29 00:08:25;;;;;;;5.13;4.73;;;13.90;91.90;;;;;;5053038;28;20408;-70
2021/04/29 00:10:51;;;;;;;6.67;5.47;;;13.90;92.30;;;;;;5053272;28;20470;-70
2021/04/29 00:13:17;;;;;;;4.93;4.53;;;13.90;92.50;;;;;;5052581;28;20177;-71
2021/04/29 00:15:44;;;;;;;7.70;5.13;;;13.90;92.70;;;;;;5051620;28;20206;-71
2021/04/29 00:18:10;;;;;;;5.27;4.90;;;13.80;93.00;;;;;;5052831;28;20262;-70
2021/04/29 00:20:35;;;;;;;4.80;4.37;;;13.80;93.40;;;;;;5051891;28;20480;-70
2021/04/29 00:23:01;;;;;;;5.13;4.50;;;13.70;93.90;;;;;;5052909;28;20197;-70
2021/04/29 00:25:26;;;;;;;6.70;4.90;;;13.70;93.70;;;;;;5052680;28;20197;-70
2021/04/29 00:27:52;;;;;;;5.47;4.40;;;13.70;93.80;;;;;;5052923;28;20640;-70
2021/04/29 00:30:18;;;;;;;5.70;4.80;;;13.60;94.00;;;;;;5055916;28;20220;-71
2021/04/29 00:32:43;;;;;;;7.03;4.47;;;13.60;93.90;;;;;;5056332;28;20174;-71
2021/04/29 00:35:10;;;;;;;5.27;4.37;;;13.60;94.40;;;;;;5056455;28;20449;-71
2021/04/29 00:37:35;;;;;;;5.90;4.10;;;13.60;94.20;;;;;;5056758;28;20536;-71
2021/04/29 00:40:01;;;;;;;6.07;4.67;;;13.60;94.40;;;;;;5056368;28;20440;-70
2021/04/29 00:42:27;;;;;;;5.07;4.67;;;13.50;94.30;;;;;;5056517;28;20178;-71
2021/04/29 00:44:52;;;;;;;4.27;3.77;;;13.50;94.40;;;;;;5056292;28;20240;-70
2021/04/29 00:47:18;;;;;;;5.10;4.03;;;13.50;94.40;;;;;;5056338;28;20177;-70
2021/04/29 00:49:43;;;;;;;4.20;3.90;;;13.50;94.50;;;;;;5056162;28;20285;-70
2021/04/29 00:52:09;;;;;;;4.57;4.10;;;13.50;94.60;;;;;;5056459;28;20220;-71
2021/04/29 00:54:34;;;;;;;4.80;4.40;;;13.40;94.60;;;;;;5056010;28;20182;-70
2021/04/29 00:57:00;;;;;;;4.70;4.30;;;13.40;94.80;;;;;;5056075;28;20209;-71
2021/04/29 00:59:26;;;;;;;5.33;4.43;;;13.40;95.10;;;;;;5056439;28;20651;-70
2021/04/29 01:01:59;;;;;;;5.20;4.40;;;13.40;94.90;;;;;;5056206;28;20651;-70
2021/04/29 01:04:36;;;;;;;4.47;4.07;;;13.30;95.00;;;;;;5055962;28;20576;-71
2021/04/29 01:07:06;;;;;;;5.30;4.80;;;13.30;95.10;;;;;;5055490;28;20512;-71
2021/04/29 01:09:46;;;;;;;5.20;4.40;;;13.30;95.40;;;;;;5056047;28;20429;-71
2021/04/29 01:12:25;;;;;;;4.87;4.43;;;13.30;95.50;;;;;;5055749;28;20424;-70
2021/04/29 01:14:52;;;;;;;5.50;5.00;;;13.30;95.70;;;;;;5055945;28;20519;-71
2021/04/29 01:17:19;;;;;;;4.33;3.93;;;13.20;95.90;;;;;;5056152;28;20459;-71
2021/04/29 01:20:07;;;;;;;4.40;4.00;;;13.20;96.00;;;;;;5055151;28;20440;-71
2021/04/29 01:22:37;;;;;;;4.87;4.47;;;13.10;96.30;;;;;;5056166;28;20447;-70
2021/04/29 01:25:11;;;;;;;4.50;4.10;;;13.20;96.00;;;;;;5055250;28;20507;-70
2021/04/29 01:27:37;;;;;;;4.60;4.20;;;13.20;96.00;;;;;;5055425;28;20796;-71
2021/04/29 01:30:09;;;;;;;4.27;3.87;;;13.10;95.90;;;;;;5055142;28;20547;-71
2021/04/29 01:32:36;;;;;;;6.40;4.80;;;13.20;95.80;;;;;;5055472;28;20491;-71
2021/04/29 01:35:02;;;;;;;4.83;4.17;;;13.10;95.70;;;;;;5055034;28;20420;-70
2021/04/29 01:37:28;;;;;;;5.23;4.33;;;13.10;95.70;;;;;;5054938;28;20405;-71
2021/04/29 01:39:54;;;;;;;4.50;4.00;;;13.10;95.70;;;;;;5055184;28;20428;-70
2021/04/29 01:42:20;;;;;;;5.30;4.47;;;13.10;95.80;;;;;;5054899;28;20404;-71
2021/04/29 01:44:45;;;;;;;4.03;3.67;;;13.10;95.70;;;;;;5054721;28;20174;-70
2021/04/29 01:47:11;;;;;;;4.40;4.00;;;13.10;95.70;;;;;;5054919;28;20178;-71
2021/04/29 01:49:37;;;;;;;4.38;3.97;;;13.10;95.80;;;;;;5054754;28;20400;-71
2021/04/29 01:52:03;;;;;;;6.70;4.60;;;13.10;95.70;;;;;;5054881;28;20186;-70
2021/04/29 01:54:28;;;;;;;5.07;3.47;;;13.20;95.70;;;;;;5054597;28;20636;-71
2021/04/29 01:56:54;;;;;;;4.80;4.03;;;13.20;96.00;;;;;;5054602;28;20444;-71
2021/04/29 01:59:20;;;;;;;4.57;4.23;;;13.20;95.60;;;;;;5054811;28;20182;-71
2021/04/29 02:01:46;;;;;;;4.53;4.13;;;13.10;95.50;;;;;;5055004;28;20190;-71
2021/04/29 02:04:12;;;;;;;5.40;4.90;;;13.20;95.50;;;;;;5054438;28;20166;-70
2021/04/29 02:06:42;;;;;;;7.40;4.77;;;13.20;95.50;;;;;;5053277;28;20178;-70
2021/04/29 02:09:09;;;;;;;6.47;4.40;;;13.20;95.40;;;;;;5054929;28;20984;-70
2021/04/29 02:11:45;;;;;;;5.17;3.90;;;13.20;95.30;;;;;;5054204;28;20412;-71
2021/04/29 02:14:13;;;;;;;6.23;4.70;;;13.20;95.30;;;;;;5053781;28;20471;-71
2021/04/29 02:16:44;;;;;;;5.60;4.13;;;13.30;95.30;;;;;;5054339;28;20638;-71
2021/04/29 02:19:10;;;;;;;7.50;4.90;;;13.30;95.20;;;;;;5034423;28;20422;-71
2021/04/29 02:21:40;;;;;;;5.03;4.60;;;13.30;95.10;;;;;;5034655;28;20417;-70
2021/04/29 02:24:06;;;;;;;5.13;3.87;;;13.30;95.10;;;;;;5034596;28;20167;-70
2021/04/29 02:26:33;;;;;;;4.67;4.17;;;13.30;95.10;;;;;;5034450;28;20426;-71
2021/04/29 02:28:59;;;;;;;4.60;4.17;;;13.30;95.10;;;;;;5054451;28;20440;-71
2021/04/29 02:31:24;;;;;;;4.63;4.23;;;13.30;95.00;;;;;;5061111;28;20797;-71
2021/04/29 02:33:53;;;;;;;5.03;4.53;;;13.30;95.00;;;;;;5062575;28;20273;-70
2021/04/29 02:36:20;;;;;;;5.53;5.03;;;13.40;95.00;;;;;;5054140;28;20456;-71
2021/04/29 02:38:46;;;;;;;5.00;4.50;;;13.30;94.90;;;;;;5053588;28;20968;-71
2021/04/29 02:41:12;;;;;;;5.40;4.90;;;13.40;94.90;;;;;;5054166;28;20401;-71
2021/04/29 02:43:38;;;;;;;4.57;4.10;;;13.30;95.00;;;;;;5054072;28;20239;-71
2021/04/29 02:46:04;;;;;;;4.90;4.40;;;13.30;95.10;;;;;;5053880;28;20181;-70
2021/04/29 02:48:30;;;;;;;5.10;4.60;;;13.30;95.00;;;;;;5053537;28;20408;-71
2021/04/29 02:50:59;;;;;;;7.80;4.53;;;13.40;95.10;;;;;;5053874;28;20174;-71
2021/04/29 02:53:25;;;;;;;4.87;4.47;;;13.30;95.10;;;;;;5053619;28;20484;-71
2021/04/29 02:55:50;;;;;;;5.70;4.87;;;13.30;95.10;;;;;;5053989;28;20862;-71
2021/04/29 02:58:17;;;;;;;5.50;4.83;;;13.20;95.30;;;;;;5054112;28;20248;-71
2021/04/29 03:00:44;;;;;;;5.67;5.07;;;13.20;95.30;;;;;;5062436;28;20202;-71
2021/04/29 03:03:10;;;;;;;7.20;5.40;;;13.30;95.40;;;;;;5063642;28;20444;-70
2021/04/29 03:05:37;;;;;;;6.13;5.50;;;13.20;95.30;;;;;;5061928;28;20412;-71
2021/04/29 03:08:03;;;;;;;6.00;4.90;;;13.30;95.30;;;;;;5053801;28;20420;-71
2021/04/29 03:10:30;;;;;;;6.60;5.63;;;13.30;95.20;;;;;;5052547;28;20456;-71
2021/04/29 03:12:57;;;;;;;6.40;5.70;;;13.30;95.20;;;;;;5053537;28;20975;-71
2021/04/29 03:15:22;;;;;;;9.30;5.70;;;13.30;95.20;;;;;;5053952;28;20483;-70
2021/04/29 03:17:48;;;;;;;7.03;5.00;;;13.30;95.20;;;;;;5053447;28;20504;-71
2021/04/29 03:20:14;;;;;;;8.23;5.77;;;13.30;95.10;;;;;;5053119;28;20248;-70
2021/04/29 03:22:40;;;;;;;6.87;5.30;;;13.30;95.10;;;;;;5053254;28;20182;-71
2021/04/29 03:25:06;;;;;;;5.47;4.97;;;13.30;95.10;;;;;;5053641;28;20856;-71
2021/04/29 03:27:32;;;;;;;5.97;5.17;;;13.30;95.10;;;;;;5053016;28;20542;-71
2021/04/29 03:29:58;;;;;;;6.70;6.10;;;13.30;95.10;;;;;;5053580;28;20444;-71
2021/04/29 03:32:24;;;;;;;7.33;6.10;;;13.20;95.10;;;;;;5052824;28;20420;-71
2021/04/29 03:34:50;;;;;;;7.23;5.60;;;13.20;95.50;;;;;;5067465;28;20280;-70
2021/04/29 03:37:16;;;;;;;6.87;6.17;;;13.10;95.20;;;;;;5070203;28;20428;-70
2021/04/29 03:39:42;;;;;;;7.83;5.87;;;13.10;95.40;;;;;;5064741;28;20507;-71
2021/04/29 03:42:10;;;;;;;6.50;5.87;;;13.10;95.50;;;;;;5053040;28;20603;-70
2021/04/29 03:44:37;;;;;;;7.20;6.50;;;13.10;95.50;;;;;;5052973;28;20807;-71
2021/04/29 03:47:04;;;;;;;8.05;7.25;;;13.00;95.60;;;;;;5052196;28;20447;-70
2021/04/29 03:49:30;;;;;;;7.43;6.63;;;12.90;95.80;;;;;;5052897;28;20602;-71
2021/04/29 03:51:55;;;;;;;7.63;6.40;;;12.90;95.90;;;;;;5053306;28;20412;-71
2021/04/29 03:54:21;;;;;;;7.30;6.60;;;13.00;95.90;;;;;;5052823;28;20432;-70
2021/04/29 03:56:47;;;;;;;7.37;6.10;;;13.00;95.90;;;;;;5053368;28;20194;-72
2021/04/29 03:59:13;;;;;;;7.73;6.60;;;12.90;96.00;;;;;;5052461;28;20659;-71
2021/04/29 04:01:39;;;;;;;8.60;6.87;;;12.90;96.10;;;;;;5053403;28;20166;-71
2021/04/29 04:04:05;;;;;;;13.43;7.87;;;12.90;96.20;;;;;;5048837;28;20439;-71
2021/04/29 04:06:30;;;;;;;9.77;8.07;;;12.90;96.30;;;;;;5053309;28;20206;-71
2021/04/29 04:08:56;;;;;;;9.20;8.30;;;12.90;96.30;;;;;;5045304;28;20202;-71
2021/04/29 04:11:21;;;;;;;9.80;8.10;;;12.90;96.50;;;;;;5041634;28;20190;-71
2021/04/29 04:13:48;;;;;;;10.43;8.97;;;12.80;96.50;;;;;;5045987;28;20190;-71
2021/04/29 04:16:15;;;;;;;8.63;7.83;;;12.90;96.60;;;;;;5050490;28;20309;-71
2021/04/29 04:18:41;;;;;;;8.97;8.07;;;12.90;96.70;;;;;;5048866;28;20452;-71
2021/04/29 04:21:07;;;;;;;11.97;8.93;;;12.90;96.70;;;;;;5040298;28;20444;-71
2021/04/29 04:23:33;;;;;;;9.87;8.97;;;12.90;96.80;;;;;;5052456;28;20455;-73
2021/04/29 04:26:00;;;;;;;10.50;9.40;;;12.90;97.10;;;;;;5054684;28;20186;-72
2021/04/29 04:28:26;;;;;;;10.47;9.37;;;12.80;97.20;;;;;;5054694;28;20482;-71
2021/04/29 04:30:52;;;;;;;10.60;9.13;;;12.80;97.40;;;;;;5052759;28;20440;-71
2021/04/29 04:33:18;;;;;;;10.37;9.27;;;12.80;97.50;;;;;;5053825;28;20418;-70
2021/04/29 04:35:43;;;;;;;11.30;9.73;;;12.80;97.80;;;;;;5053262;28;20237;-70
2021/04/29 04:38:09;;;;;;;14.87;10.53;;;12.80;97.70;;;;;;5051578;28;20228;-70
2021/04/29 04:40:35;;;;;;;11.80;10.70;;;12.80;98.20;;;;;;5052673;28;20194;-70
2021/04/29 04:43:00;;;;;;;16.57;10.77;;;12.80;98.10;;;;;;5052634;28;20201;-70
2021/04/29 04:45:26;;;;;;;15.60;12.33;;;12.70;98.20;;;;;;5052340;28;20423;-70
2021/04/29 04:47:51;;;;;;;13.00;11.60;;;12.70;98.30;;;;;;5051565;28;21010;-70
2021/04/29 04:50:17;;;;;;;14.17;10.90;;;12.70;98.40;;;;;;5051048;28;20729;-71
2021/04/29 04:52:43;;;;;;;12.80;11.50;;;12.60;98.40;;;;;;5052005;28;20679;-71
2021/04/29 04:55:08;;;;;;;18.97;12.53;;;12.70;98.50;;;;;;5052553;28;20665;-70
2021/04/29 04:57:34;;;;;;;15.17;12.33;;;12.70;98.50;;;;;;5052455;28;20746;-70
2021/04/29 05:00:00;;;;;;;15.93;12.80;;;12.60;98.60;;;;;;5050930;28;20439;-70
2021/04/29 05:02:25;;;;;;;17.47;12.80;;;12.60;98.90;;;;;;5055882;28;20194;-70
2021/04/29 05:04:51;;;;;;;16.03;13.53;;;12.60;99.10;;;;;;5065166;28;20176;-71
2021/04/29 05:07:16;;;;;;;15.17;12.50;;;12.60;99.20;;;;;;5060804;28;20208;-71
2021/04/29 05:09:43;;;;;;;18.53;13.80;;;12.50;99.70;;;;;;5054885;28;20202;-70
2021/04/29 05:12:12;;;;;;;19.40;14.43;;;12.50;99.60;;;;;;5071324;28;20256;-71
2021/04/29 05:14:38;;;;;;;19.27;13.90;;;12.50;99.80;;;;;;5074103;28;20428;-70
2021/04/29 05:17:04;;;;;;;19.07;16.43;;;12.50;99.90;;;;;;5074590;28;20455;-70
2021/04/29 05:19:30;;;;;;;19.90;15.17;;;12.40;99.90;;;;;;5065767;28;20188;-70
2021/04/29 05:21:57;;;;;;;21.03;17.00;;;12.40;99.90;;;;;;5071850;28;20922;-70
2021/04/29 05:24:22;;;;;;;18.83;16.47;;;12.40;99.90;;;;;;5055993;28;20405;-70
2021/04/29 05:26:48;;;;;;;21.00;16.90;;;12.50;99.90;;;;;;5056203;28;20409;-71
2021/04/29 05:29:14;;;;;;;20.00;17.77;;;12.40;99.90;;;;;;5054115;28;20674;-70
2021/04/29 05:31:39;;;;;;;24.60;18.13;;;12.40;99.90;;;;;;5054450;28;20217;-70
2021/04/29 05:34:05;;;;;;;23.67;18.40;;;12.30;99.90;;;;;;5054452;28;20170;-70
2021/04/29 05:36:31;;;;;;;29.40;18.10;;;12.40;99.90;;;;;;5061049;28;20647;-70
2021/04/29 05:38:57;;;;;;;22.50;18.97;;;12.30;99.90;;;;;;5074439;28;20196;-70
2021/04/29 05:41:23;;;;;;;24.70;20.30;;;12.30;99.90;;;;;;5075673;28;20189;-70
2021/04/29 05:43:48;;;;;;;25.60;21.30;;;12.30;99.90;;;;;;5063286;28;20921;-70
2021/04/29 05:46:14;;;;;;;23.63;21.07;;;12.30;99.90;;;;;;5055199;28;20194;-71
2021/04/29 05:48:39;;;;;;;27.03;21.50;;;12.30;99.90;;;;;;5055313;28;20690;-70
2021/04/29 05:51:05;;;;;;;30.13;22.73;;;12.30;99.90;;;;;;5055524;28;20170;-71
2021/04/29 05:53:31;;;;;;;24.80;21.60;;;12.20;99.90;;;;;;5054430;28;20255;-70
2021/04/29 05:55:57;;;;;;;24.97;22.20;;;12.20;99.90;;;;;;5055449;28;20262;-70
2021/04/29 05:58:22;;;;;;;24.43;21.83;;;12.20;99.90;;;;;;5054755;28;20555;-70
2021/04/29 06:00:48;;;;;;;24.80;21.43;;;12.20;99.90;;;;;;5055233;28;20170;-71
2021/04/29 06:03:14;;;;;;;30.27;22.73;;;12.20;99.90;;;;;;5053484;28;20196;-71
2021/04/29 06:05:40;;;;;;;24.87;21.20;;;12.10;99.90;;;;;;5054797;28;20169;-71
2021/04/29 06:08:05;;;;;;;28.10;22.83;;;12.10;99.90;;;;;;5054439;28;20413;-71
2021/04/29 06:10:32;;;;;;;26.23;23.10;;;12.10;99.90;;;;;;5058272;28;20258;-71
2021/04/29 06:12:58;;;;;;;31.53;23.67;;;12.10;99.90;;;;;;5055498;28;20174;-71
2021/04/29 06:15:24;;;;;;;28.27;22.47;;;12.00;99.90;;;;;;5054833;28;20856;-71
2021/04/29 06:17:49;;;;;;;26.67;22.83;;;12.10;99.90;;;;;;5054755;28;20444;-70
2021/04/29 06:20:16;;;;;;;27.90;23.80;;;12.10;99.90;;;;;;5061418;28;20658;-70
2021/04/29 06:22:42;;;;;;;29.67;23.63;;;12.20;99.90;;;;;;5061203;28;20214;-70
2021/04/29 06:25:09;;;;;;;31.37;24.90;;;12.10;99.90;;;;;;5075443;28;20408;-70
2021/04/29 06:27:36;;;;;;;30.60;24.07;;;12.10;99.90;;;;;;5060113;28;20732;-70
2021/04/29 06:30:03;;;;;;;29.63;24.70;;;12.20;99.90;;;;;;5057852;28;20492;-70
2021/04/29 06:32:29;;;;;;;35.70;26.53;;;12.20;99.90;;;;;;5057484;28;20464;-69
2021/04/29 06:34:54;;;;;;;37.17;29.80;;;12.20;99.90;;;;;;5057416;28;20437;-70
2021/04/29 06:37:20;;;;;;;43.57;33.07;;;12.20;99.90;;;;;;5056515;28;20306;-69
2021/04/29 06:39:46;;;;;;;41.47;32.60;;;12.20;99.90;;;;;;5060379;28;20206;-70
2021/04/29 06:42:12;;;;;;;43.90;33.73;;;12.30;99.90;;;;;;5054582;28;20267;-70
2021/04/29 06:44:38;;;;;;;44.07;35.53;;;12.30;99.90;;;;;;5054900;28;20448;-70
2021/04/29 06:47:04;;;;;;;41.37;33.17;;;12.30;99.90;;;;;;5054533;28;20416;-70
2021/04/29 06:49:29;;;;;;;41.67;33.60;;;12.20;99.90;;;;;;5054275;28;20439;-70
2021/04/29 06:51:55;;;;;;;42.83;33.97;;;12.20;99.90;;;;;;5053811;28;20245;-70
2021/04/29 06:54:21;;;;;;;44.70;36.33;;;12.20;99.90;;;;;;5067737;28;20226;-70
2021/04/29 06:56:49;;;;;;;41.60;33.53;;;12.30;99.90;;;;;;5073954;28;20644;-70
2021/04/29 06:59:15;;;;;;;38.20;31.13;;;12.30;99.90;;;;;;5055201;28;20193;-70
2021/04/29 07:01:40;;;;;;;40.50;32.10;;;12.20;99.90;;;;;;5052930;28;20470;-70
2021/04/29 07:04:06;;;;;;;40.63;32.83;;;12.20;99.80;;;;;;5053293;28;20210;-70
2021/04/29 07:06:32;;;;;;;44.47;34.03;;;12.20;99.90;;;;;;5053418;28;20174;-70
2021/04/29 07:09:00;;;;;;;42.90;33.10;;;12.30;99.70;;;;;;5052669;28;20202;-70
2021/04/29 07:11:27;;;;;;;42.00;33.37;;;12.30;99.40;;;;;;5065587;28;20696;-70
2021/04/29 07:13:52;;;;;;;41.60;34.53;;;12.40;99.30;;;;;;5073302;28;20412;-70
2021/04/29 07:16:18;;;;;;;41.10;33.07;;;12.50;99.10;;;;;;5073320;28;20558;-71
2021/04/29 07:18:43;;;;;;;44.43;34.80;;;12.60;99.20;;;;;;5069895;28;20202;-70
2021/04/29 07:21:09;;;;;;;42.50;33.87;;;12.80;98.70;;;;;;5053691;28;20181;-70
2021/04/29 07:23:35;;;;;;;45.13;35.30;;;12.80;98.70;;;;;;5052410;28;20166;-70
2021/04/29 07:26:00;;;;;;;40.97;34.07;;;12.90;98.40;;;;;;5053294;28;20178;-70
2021/04/29 07:28:27;;;;;;;42.30;35.27;;;13.00;98.10;;;;;;5066423;28;20573;-70
2021/04/29 07:30:53;;;;;;;47.50;35.50;;;13.10;97.90;;;;;;5057155;28;20189;-70
2021/04/29 07:33:18;;;;;;;44.30;34.60;;;13.20;97.70;;;;;;5053683;28;20420;-70
2021/04/29 07:35:44;;;;;;;42.63;35.43;;;13.10;97.60;;;;;;5052833;28;20244;-70
2021/04/29 07:38:10;;;;;;;37.97;33.20;;;13.10;97.60;;;;;;5056292;28;20198;-70
2021/04/29 07:40:36;;;;;;;43.93;38.83;;;13.10;97.70;;;;;;5057046;28;20416;-70
2021/04/29 07:43:02;;;;;;;41.43;36.37;;;13.20;97.60;;;;;;5059676;28;20411;-70
2021/04/29 07:45:29;;;;;;;48.10;38.93;;;13.30;97.40;;;;;;5059505;28;20499;-70
2021/04/29 07:47:54;;;;;;;51.20;39.97;;;13.30;97.60;;;;;;5059992;28;20507;-70
2021/04/29 07:50:20;;;;;;;48.03;39.93;;;13.30;97.70;;;;;;5058125;28;20519;-70
2021/04/29 07:52:46;;;;;;;53.00;40.73;;;13.20;97.90;;;;;;5059505;28;20585;-70
2021/04/29 07:55:13;;;;;;;53.43;41.77;;;13.20;98.20;;;;;;5059770;28;20174;-70
2021/04/29 07:57:39;;;;;;;48.83;39.97;;;13.20;98.40;;;;;;5059013;27;20181;-70
2021/04/29 08:00:07;;;;;;;45.77;39.37;;;13.30;98.50;;;;;;5059760;28;20508;-72
2021/04/29 08:02:33;;;;;;;53.30;41.47;;;13.30;98.40;;;;;;5058293;28;20452;-71
2021/04/29 08:04:59;;;;;;;54.50;40.97;;;13.40;98.30;;;;;;5059957;28;20492;-71
2021/04/29 08:07:24;;;;;;;59.77;42.87;;;13.40;98.10;;;;;;5059576;28;20916;-71
2021/04/29 08:09:50;;;;;;;53.23;38.90;;;13.30;98.50;;;;;;5059531;28;20205;-72
2021/04/29 08:12:16;;;;;;;50.23;40.03;;;13.30;98.10;;;;;;5073452;28;20185;-71
2021/04/29 08:14:42;;;;;;;53.40;41.73;;;13.20;98.30;;;;;;5059981;28;20405;-70
2021/04/29 08:17:07;;;;;;;53.50;42.10;;;13.20;98.30;;;;;;5059246;28;20224;-70
2021/04/29 08:19:33;;;;;;;56.07;43.00;;;13.20;98.10;;;;;;5059612;28;20247;-70
2021/04/29 08:21:58;;;;;;;53.07;44.30;;;13.20;98.10;;;;;;5059813;28;20180;-70
2021/04/29 08:24:24;;;;;;;65.50;45.10;;;13.20;97.70;;;;;;5059778;28;20174;-70
2021/04/29 08:26:50;;;;;;;55.70;44.13;;;13.20;97.50;;;;;;5059935;28;20581;-70
2021/04/29 08:29:16;;;;;;;63.70;45.37;;;13.10;97.60;;;;;;5059448;28;20216;-70
2021/04/29 08:31:42;;;;;;;50.57;41.50;;;13.10;97.90;;;;;;5059863;28;20452;-70
2021/04/29 08:34:07;;;;;;;54.33;41.97;;;13.10;97.60;;;;;;5059620;28;20178;-70
2021/04/29 08:36:33;;;;;;;55.23;42.67;;;13.10;97.50;;;;;;5059669;28;20210;-70
2021/04/29 08:39:02;;;;;;;53.27;41.37;;;13.20;97.00;;;;;;5058909;28;20210;-70
2021/04/29 08:41:28;;;;;;;53.53;41.90;;;13.20;96.80;;;;;;5059229;28;20166;-71
2021/04/29 08:43:53;;;;;;;50.43;40.87;;;13.20;96.80;;;;;;5059334;28;20388;-70
2021/04/29 08:46:19;;;;;;;57.00;43.57;;;13.10;96.60;;;;;;5059493;28;20204;-70
2021/04/29 08:48:45;;;;;;;54.50;45.60;;;13.00;96.70;;;;;;5057976;28;20733;-70
2021/04/29 08:51:10;;;;;;;51.53;40.17;;;13.10;96.80;;;;;;5055069;28;20401;-70
2021/04/29 08:53:37;;;;;;;48.80;39.17;;;13.10;96.50;;;;;;5056249;28;20166;-70
2021/04/29 08:56:03;;;;;;;48.30;39.90;;;13.10;96.20;;;;;;5054772;28;20194;-70
2021/04/29 08:58:29;;;;;;;48.97;39.70;;;13.20;96.00;;;;;;5055404;28;20460;-70
2021/04/29 09:01:02;;;;;;;53.87;37.50;;;13.40;95.70;;;;;;5055799;28;20408;-70
2021/04/29 09:03:33;;;;;;;49.37;37.00;;;13.40;95.50;;;;;;5056281;28;20199;-70
2021/04/29 09:06:00;;;;;;;41.40;33.43;;;13.30;95.10;;;;;;5055974;28;20424;-70
2021/04/29 09:08:31;;;;;;;39.33;32.07;;;13.30;94.40;;;;;;5055768;28;20440;-69
2021/04/29 09:11:08;;;;;;;42.13;32.43;;;13.30;94.00;;;;;;5064062;28;20420;-71
2021/04/29 09:13:34;;;;;;;41.30;31.97;;;13.20;93.30;;;;;;5076240;28;20424;-70
2021/04/29 09:16:12;;;;;;;36.00;28.33;;;13.20;93.10;;;;;;5071972;28;20448;-70
2021/04/29 09:18:40;;;;;;;39.33;28.77;;;13.20;92.80;;;;;;5055977;28;20197;-71
2021/04/29 09:21:12;;;;;;;33.10;27.40;;;13.10;92.40;;;;;;5056013;28;20420;-69
2021/04/29 09:23:40;;;;;;;36.50;27.43;;;13.10;92.20;;;;;;5056083;28;20739;-70
2021/04/29 09:26:14;;;;;;;43.70;30.73;;;13.20;92.10;;;;;;5055723;28;20466;-70
2021/04/29 09:28:39;;;;;;;42.50;29.30;;;13.40;91.90;;;;;;5053677;28;20444;-69
2021/04/29 09:31:08;;;;;;;36.73;27.33;;;13.60;91.80;;;;;;5055349;28;20448;-69
2021/04/29 09:33:39;;;;;;;34.87;27.03;;;13.70;91.20;;;;;;5055769;28;20277;-70
2021/04/29 09:36:06;;;;;;;37.43;28.40;;;13.80;91.10;;;;;;5056123;28;20464;-70
2021/04/29 09:38:38;;;;;;;41.60;27.30;;;14.10;90.70;;;;;;5055773;28;20408;-70
2021/04/29 09:41:07;;;;;;;34.63;27.93;;;14.30;90.50;;;;;;5055899;28;20401;-70
2021/04/29 09:43:34;;;;;;;31.53;25.27;;;14.40;90.00;;;;;;5055094;28;20436;-70
2021/04/29 09:46:02;;;;;;;29.07;23.73;;;14.50;87.60;;;;;;5054860;28;20425;-70
2021/04/29 09:48:36;;;;;;;30.33;26.00;;;14.50;87.50;;;;;;5053904;28;20413;-70
2021/04/29 09:51:02;;;;;;;30.30;26.30;;;14.50;88.20;;;;;;5055211;28;20425;-70
2021/04/29 09:53:39;;;;;;;34.30;27.13;;;14.40;88.30;;;;;;5056265;28;20432;-70
2021/04/29 09:56:10;;;;;;;35.80;25.87;;;14.40;89.10;;;;;;5056182;28;20853;-70
2021/04/29 09:58:36;;;;;;;28.40;24.23;;;14.40;88.50;;;;;;5056911;28;20409;-70
2021/04/29 10:01:05;;;;;;;30.07;23.67;;;14.20;87.00;;;;;;5056046;28;20429;-70
2021/04/29 10:03:31;;;;;;;28.73;23.47;;;14.20;86.80;;;;;;5057270;28;20417;-70
2021/04/29 10:05:57;;;;;;;24.03;20.40;;;14.20;87.00;;;;;;5059550;28;20425;-69
2021/04/29 10:08:26;;;;;;;24.47;20.77;;;14.10;85.60;;;;;;5059305;28;20405;-70
2021/04/29 10:10:55;;;;;;;28.63;22.30;;;14.00;85.00;;;;;;5062751;28;20185;-71
2021/04/29 10:13:26;;;;;;;23.40;20.60;;;13.90;85.80;;;;;;5074984;28;20498;-70
2021/04/29 10:15:51;;;;;;;27.47;20.33;;;14.00;85.80;;;;;;5060390;28;20973;-70
2021/04/29 10:18:17;;;;;;;30.03;21.07;;;14.10;84.80;;;;;;5055110;28;20411;-71
2021/04/29 10:20:48;;;;;;;30.33;22.30;;;14.10;85.00;;;;;;5055642;28;20647;-70
2021/04/29 10:23:17;;;;;;;27.53;20.87;;;14.00;85.10;;;;;;5055750;28;20393;-70
2021/04/29 10:25:51;;;;;;;28.60;22.80;;;14.00;86.30;;;;;;5055858;28;20922;-70
2021/04/29 10:28:35;;;;;;;27.70;23.27;;;14.10;86.60;;;;;;5054654;28;20470;-70
2021/04/29 10:31:16;;;;;;;34.03;24.27;;;14.20;87.10;;;;;;5055586;28;20431;-71
2021/04/29 10:33:55;;;;;;;29.97;23.80;;;14.20;87.40;;;;;;5054192;28;20890;-70
2021/04/29 10:36:22;;;;;;;34.13;23.03;;;14.30;86.70;;;;;;5054416;28;20859;-70
2021/04/29 10:38:49;;;;;;;50.67;26.13;;;14.50;87.00;;;;;;5054110;28;20442;-71
2021/04/29 10:41:24;;;;;;;31.67;25.70;;;14.50;87.80;;;;;;5053696;28;20421;-70
2021/04/29 10:43:52;;;;;;;29.43;24.23;;;14.50;88.80;;;;;;5054119;28;20412;-70
2021/04/29 10:46:30;;;;;;;36.40;24.60;;;14.50;87.00;;;;;;5054368;28;20523;-70
2021/04/29 10:48:56;;;;;;;28.63;23.93;;;14.30;86.90;;;;;;5054816;28;20444;-70
2021/04/29 10:51:36;;;;;;;28.30;23.20;;;14.20;86.90;;;;;;5055179;28;20409;-70
2021/04/29 10:54:16;;;;;;;29.53;22.50;;;14.10;86.20;;;;;;5055652;28;20708;-70
2021/04/29 10:56:43;;;;;;;27.07;22.10;;;14.10;85.80;;;;;;5054052;28;20953;-69
2021/04/29 10:59:11;;;;;;;22.70;19.30;;;14.20;85.70;;;;;;5054251;28;20837;-70
2021/04/29 11:01:55;;;;;;;24.03;21.03;;;14.30;85.30;;;;;;5054347;28;20478;-71
2021/04/29 11:04:21;;;;;;;21.60;19.30;;;14.20;84.30;;;;;;5055438;28;20389;-70
2021/04/29 11:06:48;;;;;;;23.10;19.57;;;14.30;84.20;;;;;;5053373;28;20421;-70
2021/04/29 11:09:22;;;;;;;24.97;18.80;;;14.40;84.10;;;;;;5053930;28;20440;-70
2021/04/29 11:11:59;;;;;;;21.47;18.60;;;14.40;83.60;;;;;;5069116;28;20415;-70
2021/04/29 11:14:35;;;;;;;24.77;21.27;;;14.50;83.30;;;;;;5073626;28;20416;-70
2021/04/29 11:17:02;;;;;;;25.67;19.47;;;14.70;83.20;;;;;;5073457;28;20469;-70
2021/04/29 11:19:45;;;;;;;22.00;19.60;;;14.60;81.70;;;;;;5064156;28;20429;-70
2021/04/29 11:22:13;;;;;;;31.73;19.37;;;14.60;81.50;;;;;;5053752;28;20909;-70
2021/04/29 11:24:42;;;;;;;24.13;17.97;;;14.50;81.40;;;;;;5054020;28;20401;-70
2021/04/29 11:27:27;;;;;;;24.37;18.90;;;14.50;81.80;;;;;;5054222;28;20396;-70
2021/04/29 11:29:58;;;;;;;23.90;21.03;;;14.20;83.60;;;;;;5053470;28;20452;-70
2021/04/29 11:32:24;;;;;;;22.27;19.07;;;14.10;84.60;;;;;;5056155;28;20785;-70
2021/04/29 11:34:51;;;;;;;22.80;17.90;;;14.10;86.20;;;;;;5058317;28;20492;-70
2021/04/29 11:37:16;;;;;;;16.87;14.57;;;13.90;91.50;;;;;;5058635;28;20674;-70
2021/04/29 11:39:42;;;;;;;17.50;14.20;;;13.30;93.40;;;;;;5053983;28;20437;-71
2021/04/29 11:42:29;;;;;;;18.13;14.37;;;13.20;94.50;;;;;;5054136;28;20162;-70
2021/04/29 11:45:16;;;;;;;15.70;12.77;;;13.30;95.20;;;;;;5054136;28;20396;-71
2021/04/29 11:48:00;;;;;;;13.57;11.20;;;13.40;95.30;;;;;;5053700;28;20910;-69
2021/04/29 11:50:32;;;;;;;16.80;11.50;;;13.30;95.40;;;;;;5052938;28;20432;-72
2021/04/29 11:53:08;;;;;;;11.27;9.90;;;13.20;95.80;;;;;;5034099;28;20546;-70
2021/04/29 11:55:35;;;;;;;12.80;9.97;;;13.00;95.70;;;;;;5033696;28;20503;-71
2021/04/29 11:58:06;;;;;;;12.03;9.67;;;12.90;95.60;;;;;;5033547;28;20597;-70
2021/04/29 12:00:38;;;;;;;13.23;11.00;;;13.00;96.60;;;;;;5049014;28;20437;-71
2021/04/29 12:03:07;;;;;;;12.00;10.80;;;13.00;96.90;;;;;;5052245;28;20474;-70
2021/04/29 12:05:36;;;;;;;11.60;10.40;;;12.90;96.70;;;;;;5053425;28;20452;-71
2021/04/29 12:08:04;;;;;;;10.47;9.27;;;12.90;97.30;;;;;;5054186;28;20748;-70
2021/04/29 12:10:47;;;;;;;12.10;10.70;;;12.90;97.30;;;;;;5060054;28;20534;-70
2021/04/29 12:13:15;;;;;;;12.50;10.97;;;12.90;97.20;;;;;;5075699;28;20461;-71
2021/04/29 12:15:41;;;;;;;12.10;10.90;;;12.80;96.40;;;;;;5076486;28;20560;-70
2021/04/29 12:18:11;;;;;;;13.13;11.07;;;12.80;96.20;;;;;;5074138;28;20419;-72
2021/04/29 12:20:37;;;;;;;16.23;10.97;;;12.80;96.00;;;;;;5056071;28;20861;-71
2021/04/29 12:23:03;;;;;;;13.30;11.90;;;12.90;95.80;;;;;;5055681;28;20401;-70
2021/04/29 12:25:29;;;;;;;15.33;13.40;;;12.90;95.60;;;;;;5056476;28;20465;-70
2021/04/29 12:27:54;;;;;;;15.20;13.50;;;12.90;96.20;;;;;;5057745;28;20171;-70
2021/04/29 12:30:26;;;;;;;14.93;12.00;;;12.80;96.60;;;;;;5056485;28;20235;-70
2021/04/29 12:32:52;;;;;;;13.40;11.30;;;12.70;95.50;;;;;;5057767;28;20633;-69
2021/04/29 12:35:35;;;;;;;13.40;10.40;;;12.80;94.40;;;;;;5057799;28;20482;-69